Terminal Aerodrome Forecast
Issued by NWS

Home | Current Version | Previous Version | Text Only | Print | Product List | Glossary Off
Versions: 1 2 3 4 5 6 7 8 9 10 11 12 13 14 15 16 17 18 19 20 21

000
FTUS43 KICT 141905 AAA
TAFRSL
TAF AMD
KRSL 141905Z 1419/1518 19010KT P6SM OVC008
      TEMPO 1419/1423 OVC012
     FM150400 23006KT P6SM BKN015
     FM150500 28007KT P6SM SCT025
     FM150700 31010KT P6SM SCT080
     FM151700 36011KT P6SM SKC=

USA.gov is the U.S. government's official web portal to all federal, state and local government web resources and services.